Time;durP1;ratioP1;P1;durP2;ratioP2;P2;SDS_P1;SDS_P2;PMS_P1;PMS_P2;Temp;Humidity;BMP_temperature;BMP_pressure;BME280_temperature;BME280_humidity;BME280_pressure;Samples;Min_cycle;Max_cycle;Signal;HPM_P1;HPM_P2
2023/01/10 00:00:12;;;;;;;16.30;3.47;;;;;;;4.24;100.00;101356.19;5227311;28;20028;-77
2023/01/10 00:02:43;;;;;;;15.75;4.05;;;;;;;4.25;100.00;101357.03;5227306;28;20029;-77
2023/01/10 00:05:13;;;;;;;21.80;3.88;;;;;;;4.26;100.00;101370.19;5225423;28;20028;-77
2023/01/10 00:07:45;;;;;;;19.77;3.60;;;;;;;4.24;100.00;101369.47;5206970;28;20035;-75
2023/01/10 00:10:15;;;;;;;15.13;3.40;;;;;;;4.27;100.00;101365.75;5206661;28;20029;-77
2023/01/10 00:15:35;;;;;;;18.30;3.58;;;;;;;4.25;100.00;101373.81;5215480;28;20087;-76
2023/01/10 00:18:06;;;;;;;14.63;2.72;;;;;;;4.23;100.00;101375.75;5205470;28;20097;-76
2023/01/10 00:20:36;;;;;;;27.20;3.28;;;;;;;4.25;100.00;101384.44;5215062;28;20560;-76
2023/01/10 00:23:07;;;;;;;22.05;3.55;;;;;;;4.27;100.00;101387.00;5211303;28;20029;-76
2023/01/10 00:25:38;;;;;;;19.67;3.45;;;;;;;4.28;100.00;101389.53;5215801;28;20029;-76
2023/01/10 00:28:22;;;;;;;19.58;3.33;;;;;;;4.26;100.00;101401.22;5226850;28;20489;-76
2023/01/10 00:30:54;;;;;;;12.05;2.38;;;;;;;4.23;100.00;101418.25;5226960;28;20109;-76
2023/01/10 00:33:25;;;;;;;12.38;3.45;;;;;;;4.24;100.00;101414.63;5224414;28;20028;-77
2023/01/10 00:35:55;;;;;;;19.33;2.42;;;;;;;4.23;100.00;101404.97;5213157;28;20444;-76
2023/01/10 00:38:26;;;;;;;22.63;2.83;;;;;;;4.24;100.00;101419.94;5218571;28;20072;-77
2023/01/10 00:40:57;;;;;;;16.20;2.90;;;;;;;4.28;100.00;101416.09;5226738;28;20370;-76
2023/01/10 00:46:16;;;;;;;21.08;3.90;;;;;;;4.42;100.00;101417.75;5226529;28;20021;-77
2023/01/10 00:48:47;;;;;;;15.10;2.58;;;;;;;4.48;100.00;101421.75;5211786;28;20025;-76
2023/01/10 00:51:18;;;;;;;21.27;3.08;;;;;;;4.52;100.00;101417.91;5218752;28;20033;-77
2023/01/10 00:53:48;;;;;;;19.08;2.78;;;;;;;4.56;100.00;101416.72;5220684;28;20127;-77
2023/01/10 00:56:19;;;;;;;26.73;3.72;;;;;;;4.58;100.00;101417.47;5225996;28;20025;-77
2023/01/10 00:58:49;;;;;;;21.13;2.97;;;;;;;4.59;100.00;101416.50;5212407;28;20029;-75
2023/01/10 01:01:20;;;;;;;15.95;4.07;;;;;;;4.63;100.00;101425.94;5225565;28;20048;-76
2023/01/10 01:03:50;;;;;;;16.92;2.85;;;;;;;4.67;100.00;101422.94;5209103;28;20021;-76
2023/01/10 01:06:20;;;;;;;21.75;2.70;;;;;;;4.70;100.00;101432.50;5217131;28;20017;-76
2023/01/10 01:08:51;;;;;;;21.42;3.58;;;;;;;4.70;100.00;101435.16;5226332;28;20512;-76
2023/01/10 01:11:21;;;;;;;19.92;3.35;;;;;;;4.71;100.00;101438.66;5212743;28;20059;-76
2023/01/10 01:13:52;;;;;;;11.13;2.70;;;;;;;4.73;100.00;101440.25;5211786;28;20028;-76
2023/01/10 01:16:22;;;;;;;16.20;2.60;;;;;;;4.77;100.00;101444.38;5221059;28;20052;-77
2023/01/10 01:18:53;;;;;;;11.25;2.83;;;;;;;4.79;100.00;101453.06;5205381;28;20116;-77
2023/01/10 01:21:27;;;;;;;27.55;2.95;;;;;;;4.85;100.00;101457.09;5219785;28;20021;-77
2023/01/10 01:23:57;;;;;;;23.88;3.47;;;;;;;4.91;100.00;101453.97;5224179;28;20111;-77
2023/01/10 01:26:28;;;;;;;23.17;3.08;;;;;;;4.91;100.00;101464.59;5225554;28;20100;-76
2023/01/10 01:28:58;;;;;;;19.70;3.47;;;;;;;4.92;100.00;101463.66;5224228;28;20029;-76
2023/01/10 01:31:29;;;;;;;20.80;3.70;;;;;;;4.98;100.00;101470.31;5220690;28;20079;-76
2023/01/10 01:33:59;;;;;;;17.30;3.17;;;;;;;5.04;100.00;101470.69;5208761;28;20047;-77
2023/01/10 01:36:29;;;;;;;14.20;3.20;;;;;;;5.07;100.00;101472.25;5217403;28;20033;-76
2023/01/10 01:39:00;;;;;;;15.73;2.80;;;;;;;5.07;100.00;101481.13;5204623;28;20072;-77
2023/01/10 01:44:19;;;;;;;17.75;3.08;;;;;;;5.10;100.00;101480.88;5208575;28;20028;-76
2023/01/10 01:47:02;;;;;;;24.55;4.05;;;;;;;5.14;100.00;101486.81;5213991;28;20032;-77
2023/01/10 01:49:42;;;;;;;20.85;2.92;;;;;;;5.18;100.00;101496.28;5224144;28;20032;-76
2023/01/10 01:52:25;;;;;;;23.90;3.72;;;;;;;5.24;100.00;101505.59;5225065;28;20038;-76
2023/01/10 01:54:58;;;;;;;24.75;3.83;;;;;;;5.21;100.00;101498.69;5215081;28;20497;-76
2023/01/10 01:57:31;;;;;;;26.08;3.88;;;;;;;5.14;100.00;101503.63;5220319;28;20421;-76
2023/01/10 02:00:04;;;;;;;28.52;3.25;;;;;;;5.09;100.00;101496.94;5224486;28;20051;-76
2023/01/10 02:02:41;;;;;;;15.98;2.75;;;;;;;4.99;100.00;101502.09;5204459;28;20032;-76
2023/01/10 02:05:15;;;;;;;19.45;3.50;;;;;;;4.88;100.00;101508.22;5217672;28;20036;-76
2023/01/10 02:07:48;;;;;;;22.17;3.28;;;;;;;4.83;100.00;101507.72;5215553;28;20022;-76
2023/01/10 02:10:41;;;;;;;14.40;2.55;;;;;;;4.80;100.00;101505.28;5207015;28;20032;-76
2023/01/10 02:13:15;;;;;;;33.05;3.35;;;;;;;4.77;100.00;101512.63;5224962;28;20060;-76
2023/01/10 02:16:05;;;;;;;18.17;3.63;;;;;;;4.77;100.00;101513.50;5224416;28;20151;-75
2023/01/10 02:18:46;;;;;;;23.15;3.13;;;;;;;4.74;100.00;101511.03;5225142;28;20025;-77
2023/01/10 02:21:59;;;;;;;25.92;3.50;;;;;;;4.77;100.00;101508.19;5210805;28;20022;-76
2023/01/10 02:25:27;;;;;;;20.92;2.97;;;;;;;4.85;100.00;101520.88;5202450;28;20048;-76
2023/01/10 02:28:20;;;;;;;25.50;2.97;;;;;;;4.88;100.00;101507.38;5203090;28;20414;-77
2023/01/10 02:31:30;;;;;;;23.25;3.92;;;;;;;4.85;100.00;101515.56;5203874;28;20374;-77
2023/01/10 02:34:27;;;;;;;25.88;4.25;;;;;;;4.84;100.00;101527.19;5204261;28;20045;-76
2023/01/10 02:37:11;;;;;;;27.95;5.50;;;;;;;4.87;100.00;101534.91;5208269;28;20034;-76
2023/01/10 02:39:44;;;;;;;21.48;3.58;;;;;;;4.85;100.00;101539.50;5219990;28;20025;-76
2023/01/10 02:42:27;;;;;;;18.80;3.30;;;;;;;4.84;100.00;101535.16;5224327;28;20481;-76
2023/01/10 02:45:06;;;;;;;30.45;5.82;;;;;;;4.84;100.00;101541.31;5212367;28;20071;-76
2023/01/10 02:47:40;;;;;;;21.27;3.10;;;;;;;4.86;100.00;101546.50;5210211;28;20025;-76
2023/01/10 02:50:35;;;;;;;19.42;3.42;;;;;;;4.86;100.00;101546.50;5212093;28;20030;-75
2023/01/10 02:53:15;;;;;;;22.98;4.03;;;;;;;4.84;100.00;101545.78;5212604;28;20025;-76
2023/01/10 02:55:52;;;;;;;26.08;3.97;;;;;;;4.86;100.00;101535.88;5207286;28;20057;-76
2023/01/10 02:58:36;;;;;;;22.08;3.63;;;;;;;4.81;100.00;101546.84;5215758;28;20032;-76
2023/01/10 03:01:25;;;;;;;22.93;3.50;;;;;;;4.80;100.00;101553.13;5224311;28;20508;-76
2023/01/10 03:04:07;;;;;;;22.67;3.50;;;;;;;4.75;100.00;101562.41;5206260;28;20378;-77
2023/01/10 03:07:01;;;;;;;33.13;3.58;;;;;;;4.63;100.00;101562.34;5216432;28;20507;-76
2023/01/10 03:09:38;;;;;;;19.85;2.85;;;;;;;4.61;100.00;101558.91;5215346;28;20061;-76
2023/01/10 03:12:18;;;;;;;23.35;3.17;;;;;;;4.58;100.00;101567.13;5221109;28;20025;-76
2023/01/10 03:14:50;;;;;;;26.38;3.50;;;;;;;4.55;100.00;101574.47;5218866;28;20588;-76
2023/01/10 03:17:22;;;;;;;33.10;3.58;;;;;;;4.49;100.00;101577.56;5210654;28;20384;-76
2023/01/10 03:19:58;;;;;;;34.25;6.25;;;;;;;4.43;100.00;101568.22;5213035;28;20029;-76
2023/01/10 03:22:32;;;;;;;25.05;3.63;;;;;;;4.37;100.00;101580.13;5217147;28;20025;-76
2023/01/10 03:25:06;;;;;;;25.73;3.97;;;;;;;4.33;100.00;101577.81;5228022;28;20100;-76
2023/01/10 03:28:01;;;;;;;24.20;3.30;;;;;;;4.28;100.00;101579.94;5228945;28;20392;-76
2023/01/10 03:30:45;;;;;;;37.42;5.28;;;;;;;4.22;100.00;101588.31;5215803;28;20099;-76
2023/01/10 03:33:21;;;;;;;21.35;3.80;;;;;;;4.14;100.00;101580.88;5209744;28;20401;-76
2023/01/10 03:36:22;;;;;;;35.20;4.40;;;;;;;4.13;100.00;101581.84;5207932;28;20620;-76
2023/01/10 03:39:24;;;;;;;26.40;3.28;;;;;;;4.13;100.00;101582.69;5228386;28;20113;-76
2023/01/10 03:42:15;;;;;;;30.30;3.88;;;;;;;4.10;100.00;101590.03;5216560;28;20037;-76
2023/01/10 03:45:12;;;;;;;34.85;3.70;;;;;;;4.05;100.00;101592.16;5215142;28;20040;-76
2023/01/10 03:47:47;;;;;;;41.33;4.35;;;;;;;3.99;100.00;101600.53;5222986;28;20036;-76
2023/01/10 03:50:19;;;;;;;;;;;;;;;3.95;100.00;101604.34;5206306;28;20606;-76
2023/01/10 03:52:50;;;;;;;30.50;4.07;;;;;;;3.96;100.00;101609.56;5220714;28;19916;-75
2023/01/10 03:55:24;;;;;;;35.72;5.50;;;;;;;3.94;100.00;101618.59;5220587;28;20025;-76
2023/01/10 03:57:55;;;;;;;26.95;4.10;;;;;;;3.94;100.00;101615.94;5216154;28;20545;-77
2023/01/10 04:00:26;;;;;;;32.80;4.50;;;;;;;3.93;100.00;101614.25;5225365;28;20726;-76
2023/01/10 04:02:58;;;;;;;27.33;4.18;;;;;;;3.92;100.00;101609.91;5218881;28;20036;-76
2023/01/10 04:05:28;;;;;;;29.30;3.90;;;;;;;3.92;100.00;101615.19;5223683;28;20112;-76
2023/01/10 04:07:58;;;;;;;28.05;4.50;;;;;;;3.92;100.00;101615.19;5206399;28;20153;-76
2023/01/10 04:10:29;;;;;;;35.65;4.07;;;;;;;3.93;100.00;101619.56;5219966;28;20048;-76
2023/01/10 04:13:01;;;;;;;31.23;4.43;;;;;;;3.89;100.00;101625.06;5206752;28;20036;-76
2023/01/10 04:15:32;;;;;;;40.63;4.57;;;;;;;3.85;100.00;101644.78;5217526;28;20017;-76
2023/01/10 04:18:02;;;;;;;30.48;4.97;;;;;;;3.82;100.00;101645.03;5214142;28;20547;-76
2023/01/10 04:20:32;;;;;;;29.88;5.00;;;;;;;3.79;100.00;101634.59;5225998;28;20048;-76
2023/01/10 04:23:03;;;;;;;37.17;5.10;;;;;;;3.78;100.00;101632.06;5227086;28;20401;-76
2023/01/10 04:25:33;;;;;;;38.83;6.80;;;;;;;3.76;100.00;101645.41;5226366;28;20052;-76
2023/01/10 04:28:04;;;;;;;34.53;4.85;;;;;;;3.76;100.00;101655.19;5223768;28;20032;-76
2023/01/10 04:30:34;;;;;;;25.17;4.13;;;;;;;3.74;100.00;101651.78;5216549;28;20070;-76
2023/01/10 04:33:06;;;;;;;43.30;7.40;;;;;;;3.70;100.00;101656.44;5211984;28;20021;-76
2023/01/10 04:35:36;;;;;;;42.53;5.63;;;;;;;3.69;100.00;101657.41;5217629;28;20397;-76
2023/01/10 04:38:06;;;;;;;27.63;3.55;;;;;;;3.68;100.00;101661.00;5213913;28;20025;-76
2023/01/10 04:40:37;;;;;;;28.67;4.32;;;;;;;3.67;100.00;101658.47;5237129;28;20057;-76
2023/01/10 04:43:09;;;;;;;28.05;4.05;;;;;;;3.64;100.00;101648.91;5207324;28;20056;-76
2023/01/10 04:45:42;;;;;;;39.00;5.63;;;;;;;3.64;100.00;101659.50;5205070;28;20419;-76
2023/01/10 04:48:13;;;;;;;33.20;4.57;;;;;;;3.62;100.00;101670.22;5214189;28;20444;-76
2023/01/10 04:50:48;;;;;;;32.95;3.53;;;;;;;3.61;100.00;101680.94;5223624;28;20029;-76
2023/01/10 04:53:20;;;;;;;31.15;4.35;;;;;;;3.60;100.00;101669.47;5205058;28;20033;-76
2023/01/10 04:55:50;;;;;;;35.05;4.75;;;;;;;3.56;100.00;101662.66;5208942;28;20036;-75
2023/01/10 04:58:20;;;;;;;33.05;4.15;;;;;;;3.54;100.00;101674.34;5227171;28;20025;-76
2023/01/10 05:00:51;;;;;;;38.03;4.93;;;;;;;3.60;100.00;101677.44;5224724;28;20857;-76
2023/01/10 05:03:21;;;;;;;27.65;4.80;;;;;;;3.58;100.00;101692.59;5214698;28;20071;-76
2023/01/10 05:05:52;;;;;;;31.40;5.47;;;;;;;3.61;100.00;101696.84;5217870;28;20024;-75
2023/01/10 05:08:22;;;;;;;23.73;4.63;;;;;;;3.62;100.00;101699.41;5204759;28;20036;-76
2023/01/10 05:10:53;;;;;;;19.30;4.43;;;;;;;3.62;100.00;101696.78;5224585;28;20111;-76
2023/01/10 05:13:25;;;;;;;36.25;5.15;;;;;;;3.64;100.00;101697.50;5211490;28;20061;-76
2023/01/10 05:15:56;;;;;;;30.85;4.82;;;;;;;3.64;100.00;101697.50;5219746;28;20021;-76
2023/01/10 05:18:28;;;;;;;31.40;4.43;;;;;;;3.72;100.00;101698.81;5223257;28;20033;-76
2023/01/10 05:21:11;;;;;;;35.83;5.72;;;;;;;3.69;100.00;101697.19;5205528;28;20536;-76
2023/01/10 05:23:42;;;;;;;32.83;4.53;;;;;;;3.63;100.00;101695.81;5217550;28;20112;-76
2023/01/10 05:26:14;;;;;;;29.75;3.42;;;;;;;3.57;100.00;101711.28;5205955;28;20096;-74
2023/01/10 05:28:45;;;;;;;21.58;3.70;;;;;;;3.47;100.00;101715.50;5226489;28;20473;-76
2023/01/10 05:31:18;;;;;;;34.63;5.00;;;;;;;3.51;100.00;101715.16;5211122;28;20075;-76
2023/01/10 05:33:50;;;;;;;30.58;4.88;;;;;;;3.48;100.00;101730.44;5224057;28;20032;-75
2023/01/10 05:36:21;;;;;;;28.70;4.10;;;;;;;3.42;100.00;101726.41;5220056;28;20029;-75
2023/01/10 05:38:51;;;;;;;41.42;4.55;;;;;;;3.42;100.00;101723.75;5217034;28;20026;-75
2023/01/10 05:41:22;;;;;;;31.92;4.38;;;;;;;3.41;100.00;101724.66;5227010;28;20036;-76
2023/01/10 05:43:53;;;;;;;31.88;6.68;;;;;;;3.32;100.00;101718.19;5205859;28;20040;-75
2023/01/10 05:46:23;;;;;;;34.75;6.30;;;;;;;3.24;100.00;101720.44;5211733;28;20032;-75
2023/01/10 05:48:53;;;;;;;40.53;4.97;;;;;;;3.20;100.00;101724.25;5224685;28;20029;-75
2023/01/10 05:51:25;;;;;;;37.55;5.35;;;;;;;3.17;100.00;101731.56;5202887;28;20497;-76
2023/01/10 05:53:57;;;;;;;30.42;4.18;;;;;;;3.10;100.00;101726.63;5205641;28;20402;-75
2023/01/10 05:56:28;;;;;;;40.58;5.25;;;;;;;3.01;100.00;101729.88;5214918;28;20025;-75
2023/01/10 05:58:59;;;;;;;28.05;3.92;;;;;;;2.96;100.00;101741.69;5208339;28;20017;-75
2023/01/10 06:01:29;;;;;;;32.13;5.03;;;;;;;2.94;100.00;101738.28;5223759;28;20760;-76
2023/01/10 06:04:00;;;;;;;24.88;4.57;;;;;;;2.93;100.00;101734.78;5224928;28;20017;-75
2023/01/10 06:06:30;;;;;;;19.30;4.10;;;;;;;2.93;100.00;101740.09;5225063;28;20041;-76
2023/01/10 06:09:01;;;;;;;40.30;5.22;;;;;;;2.92;100.00;101749.00;5224878;28;20030;-76
2023/01/10 06:11:35;;;;;;;40.70;4.57;;;;;;;2.95;100.00;101748.78;5223837;28;20036;-75
2023/01/10 06:14:06;;;;;;;48.67;7.80;;;;;;;2.98;100.00;101737.16;5224946;28;20116;-76
2023/01/10 06:16:37;;;;;;;29.20;4.38;;;;;;;2.99;100.00;101734.41;5209943;28;20029;-76
2023/01/10 06:19:08;;;;;;;39.67;4.88;;;;;;;3.03;100.00;101743.88;5216264;28;20052;-76
2023/01/10 06:21:38;;;;;;;35.45;5.03;;;;;;;3.13;100.00;101743.31;5217237;28;20031;-75
2023/01/10 06:24:10;;;;;;;36.92;4.53;;;;;;;3.14;100.00;101745.84;5204396;28;20033;-75
2023/01/10 06:26:40;;;;;;;39.58;4.07;;;;;;;3.18;100.00;101747.38;5207057;28;20056;-75
2023/01/10 06:29:11;;;;;;;29.98;4.80;;;;;;;3.20;100.00;101749.91;5225003;28;20508;-76
2023/01/10 06:31:41;;;;;;;29.58;4.45;;;;;;;3.21;100.00;101749.81;5205465;28;20024;-75
2023/01/10 06:34:12;;;;;;;34.72;5.43;;;;;;;3.22;100.00;101756.84;5209397;28;20508;-74
2023/01/10 06:36:42;;;;;;;39.50;4.00;;;;;;;3.20;100.00;101753.41;5210967;28;20041;-75
2023/01/10 06:39:13;;;;;;;38.92;4.40;;;;;;;3.18;100.00;101760.63;5222058;28;20020;-76
2023/01/10 06:41:43;;;;;;;38.28;5.43;;;;;;;3.15;100.00;101766.09;5221314;28;20104;-76
2023/01/10 06:44:14;;;;;;;31.17;4.13;;;;;;;3.13;100.00;101767.16;5224436;28;20117;-76
2023/01/10 06:46:44;;;;;;;33.83;4.88;;;;;;;3.08;100.00;101773.59;5223373;28;20481;-76
2023/01/10 06:49:14;;;;;;;35.40;5.70;;;;;;;3.09;100.00;101770.00;5224376;28;20119;-76
2023/01/10 06:51:45;;;;;;;40.70;5.65;;;;;;;3.15;100.00;101766.09;5213388;28;20025;-76
2023/01/10 06:54:16;;;;;;;34.80;5.95;;;;;;;3.15;100.00;101776.72;5219768;28;20477;-75
2023/01/10 06:56:47;;;;;;;64.90;7.13;;;;;;;3.12;100.00;101776.94;5224735;28;20025;-75
2023/01/10 06:59:18;;;;;;;35.30;4.35;;;;;;;3.05;100.00;101780.88;5218406;28;20021;-76
2023/01/10 07:01:48;;;;;;;35.58;4.93;;;;;;;2.98;100.00;101788.38;5202921;28;20666;-76
2023/01/10 07:04:19;;;;;;;24.05;4.88;;;;;;;2.98;100.00;101787.53;5202257;28;20052;-76
2023/01/10 07:06:49;;;;;;;34.15;4.75;;;;;;;2.95;100.00;101801.81;5202421;28;20049;-75
2023/01/10 07:09:20;;;;;;;31.85;5.30;;;;;;;2.94;100.00;101802.75;5202451;28;20120;-75
2023/01/10 07:11:50;;;;;;;39.88;4.40;;;;;;;2.95;100.00;101808.91;5204135;28;20035;-75
2023/01/10 07:14:21;;;;;;;28.00;4.10;;;;;;;2.92;100.00;101803.81;5222887;28;20049;-76
2023/01/10 07:16:51;;;;;;;29.15;4.10;;;;;;;2.88;100.00;101800.50;5223704;28;20021;-75
2023/01/10 07:19:21;;;;;;;31.13;4.80;;;;;;;2.83;100.00;101814.00;5223009;28;20025;-75
2023/01/10 07:21:52;;;;;;;37.53;4.47;;;;;;;2.80;100.00;101819.50;5223373;28;20111;-75
2023/01/10 07:24:22;;;;;;;25.38;4.90;;;;;;;2.74;100.00;101822.50;5223669;28;20052;-76
2023/01/10 07:26:55;;;;;;;33.20;5.22;;;;;;;2.71;100.00;101828.00;5223561;28;20088;-75
2023/01/10 07:29:25;;;;;;;22.05;4.25;;;;;;;2.64;100.00;101826.66;5222639;28;20045;-75
2023/01/10 07:31:56;;;;;;;37.83;5.75;;;;;;;2.63;100.00;101830.25;5201786;28;20072;-75
2023/01/10 07:34:26;;;;;;;25.55;4.25;;;;;;;2.63;100.00;101843.50;5205350;28;20049;-75
2023/01/10 07:36:56;;;;;;;36.30;4.45;;;;;;;2.63;100.00;101843.50;5214232;28;20018;-75
2023/01/10 07:39:27;;;;;;;34.78;3.85;;;;;;;2.67;100.00;101844.19;5201199;28;20060;-75
2023/01/10 07:42:00;;;;;;;17.80;3.85;;;;;;;2.68;100.00;101849.38;5207530;28;20110;-76
2023/01/10 07:44:31;;;;;;;27.13;4.20;;;;;;;2.72;100.00;101865.97;5221624;28;20489;-76
2023/01/10 07:47:02;;;;;;;34.15;4.60;;;;;;;2.74;100.00;101856.13;5222474;28;20017;-76
2023/01/10 07:49:32;;;;;;;43.88;6.07;;;;;;;2.76;100.00;101847.16;5215292;28;20029;-76
2023/01/10 07:52:04;;;;;;;26.08;3.95;;;;;;;2.77;100.00;101846.19;5201737;28;20033;-75
2023/01/10 07:54:34;;;;;;;39.53;5.93;;;;;;;2.85;100.00;101851.88;5202372;28;20033;-76
2023/01/10 07:57:05;;;;;;;34.00;4.32;;;;;;;2.84;100.00;101844.88;5201641;28;20040;-75
2023/01/10 07:59:35;;;;;;;29.73;3.83;;;;;;;2.91;100.00;101836.53;5210141;28;20025;-75
2023/01/10 08:02:09;;;;;;;28.60;5.00;;;;;;;2.96;100.00;101837.13;5220020;28;20082;-76
2023/01/10 08:04:39;;;;;;;32.95;5.30;;;;;;;3.03;100.00;101841.13;5212427;28;20109;-75
2023/01/10 08:07:10;;;;;;;34.88;4.55;;;;;;;3.08;100.00;101842.53;5209604;28;20024;-76
2023/01/10 08:09:40;;;;;;;30.52;4.18;;;;;;;3.14;100.00;101841.31;5213553;28;20494;-76
2023/01/10 08:12:11;;;;;;;27.80;3.65;;;;;;;3.19;100.00;101839.22;5223716;28;20032;-76
2023/01/10 08:14:42;;;;;;;30.38;4.07;;;;;;;3.26;100.00;101837.91;5223063;28;20041;-76
2023/01/10 08:17:12;;;;;;;36.85;5.25;;;;;;;3.32;100.00;101836.69;5219228;28;20500;-76
2023/01/10 08:19:43;;;;;;;27.20;4.00;;;;;;;3.46;100.00;101834.00;5211798;28;20032;-76
2023/01/10 08:22:13;;;;;;;28.80;4.43;;;;;;;3.55;100.00;101827.25;5212665;28;20493;-74
2023/01/10 08:24:44;;;;;;;21.10;3.85;;;;;;;3.65;100.00;101833.69;5223099;28;20508;-76
2023/01/10 08:27:14;;;;;;;38.30;7.43;;;;;;;3.74;100.00;101834.91;5205194;28;20025;-76
2023/01/10 08:29:45;;;;;;;26.33;3.92;;;;;;;3.84;100.00;101838.69;5221152;28;20138;-76
2023/01/10 08:32:15;;;;;;;29.65;5.15;;;;;;;3.89;100.00;101834.78;5214530;28;20409;-76
2023/01/10 08:34:46;;;;;;;30.38;4.13;;;;;;;3.96;100.00;101837.03;5211820;28;20032;-76
2023/01/10 08:37:16;;;;;;;35.30;3.55;;;;;;;4.05;100.00;101837.28;5223981;28;20036;-76
2023/01/10 08:39:47;;;;;;;20.95;3.95;;;;;;;4.01;100.00;101832.28;5222857;28;20020;-75
2023/01/10 08:42:18;;;;;;;22.48;3.97;;;;;;;4.00;100.00;101835.88;5225012;28;20077;-76
2023/01/10 08:44:49;;;;;;;31.77;4.22;;;;;;;4.00;100.00;101836.72;5224524;28;20104;-75
2023/01/10 08:47:19;;;;;;;29.52;4.80;;;;;;;4.00;100.00;101828.75;5225144;28;20459;-76
2023/01/10 08:49:50;;;;;;;24.33;4.30;;;;;;;4.03;100.00;101835.69;5215083;28;20048;-76
2023/01/10 08:52:20;;;;;;;20.98;3.90;;;;;;;4.06;100.00;101830.16;5220882;28;20029;-76
2023/01/10 08:54:51;;;;;;;30.83;5.03;;;;;;;4.11;100.00;101833.38;5216747;28;20013;-76
2023/01/10 08:57:21;;;;;;;26.27;3.92;;;;;;;4.14;100.00;101833.19;5218357;28;20045;-76
2023/01/10 08:59:52;;;;;;;22.05;3.80;;;;;;;4.18;100.00;101834.69;5214767;28;20128;-75
2023/01/10 09:02:22;;;;;;;34.47;4.13;;;;;;;4.16;100.00;101828.63;5204940;28;20033;-76
2023/01/10 09:04:53;;;;;;;20.83;4.18;;;;;;;4.18;100.00;101839.16;5203798;28;20032;-76
2023/01/10 09:07:23;;;;;;;26.55;4.53;;;;;;;4.19;100.00;101839.03;5216684;28;20473;-76
2023/01/10 09:09:54;;;;;;;28.40;5.05;;;;;;;4.20;100.00;101837.25;5203789;28;20025;-75
2023/01/10 09:15:13;;;;;;;18.83;3.83;;;;;;;4.31;100.00;101835.56;5225488;28;20025;-77
2023/01/10 09:17:44;;;;;;;22.17;3.60;;;;;;;4.36;100.00;101838.78;5212762;28;20025;-77
2023/01/10 09:20:15;;;;;;;17.67;3.88;;;;;;;4.38;100.00;101834.22;5203287;28;20035;-77
2023/01/10 09:22:45;;;;;;;24.27;3.75;;;;;;;4.41;100.00;101826.03;5203088;28;20029;-77
2023/01/10 09:25:16;;;;;;;26.02;3.97;;;;;;;4.47;100.00;101824.78;5202877;28;20025;-77
2023/01/10 09:27:54;;;;;;;28.50;4.70;;;;;;;4.50;100.00;101815.75;5202705;28;20022;-77
2023/01/10 09:30:26;;;;;;;25.77;4.15;;;;;;;4.57;100.00;101817.06;5203500;28;20021;-76
2023/01/10 09:32:58;;;;;;;28.73;4.22;;;;;;;4.57;100.00;101814.41;5203791;28;20048;-77
2023/01/10 09:35:30;;;;;;;33.92;4.28;;;;;;;4.65;100.00;101806.75;5214245;28;20024;-77
2023/01/10 09:38:01;;;;;;;24.73;4.00;;;;;;;4.69;100.00;101797.59;5209670;28;20078;-77
2023/01/10 09:40:47;;;;;;;30.02;4.18;;;;;;;4.70;100.00;101804.63;5233411;28;20025;-77
2023/01/10 09:43:35;;;;;;;27.38;3.88;;;;;;;4.73;100.00;101804.41;5211646;28;20029;-77
2023/01/10 09:46:16;;;;;;;22.75;4.40;;;;;;;4.78;100.00;101794.31;5223146;28;20029;-76
2023/01/10 09:49:05;;;;;;;23.73;3.70;;;;;;;4.83;100.00;101788.69;5223676;28;20120;-76
2023/01/10 09:51:49;;;;;;;19.77;3.50;;;;;;;4.87;100.00;101795.47;5214115;28;20108;-77
2023/01/10 09:54:28;;;;;;;20.85;3.50;;;;;;;4.90;100.00;101787.28;5203145;28;20025;-77
2023/01/10 09:57:00;;;;;;;29.35;5.75;;;;;;;4.92;100.00;101786.25;5202036;28;20072;-77
2023/01/10 09:59:40;;;;;;;22.50;3.83;;;;;;;4.96;100.00;101786.00;5203022;28;20060;-76
2023/01/10 10:02:31;;;;;;;22.77;4.40;;;;;;;5.02;100.00;101774.94;5201592;28;20033;-77
2023/01/10 10:05:10;;;;;;;22.88;3.78;;;;;;;5.05;100.00;101769.41;5203333;28;20029;-77
2023/01/10 10:07:41;;;;;;;25.60;5.07;;;;;;;5.10;100.00;101775.25;5203192;28;20036;-77
2023/01/10 10:10:20;;;;;;;34.50;4.00;;;;;;;5.09;100.00;101773.56;5203740;28;20033;-77
2023/01/10 10:13:10;;;;;;;24.98;4.82;;;;;;;5.14;100.00;101782.06;5212756;28;20029;-76
2023/01/10 10:15:52;;;;;;;23.33;3.95;;;;;;;5.16;100.00;101778.31;5215008;28;20048;-77
2023/01/10 10:18:39;;;;;;;24.02;3.90;;;;;;;5.26;100.00;101773.22;5208269;28;20036;-77
2023/01/10 10:21:25;;;;;;;36.35;5.35;;;;;;;5.27;100.00;101776.72;5213547;28;20056;-77
2023/01/10 10:24:29;;;;;;;26.90;3.80;;;;;;;5.27;100.00;101758.97;5222436;28;20071;-77
2023/01/10 10:27:21;;;;;;;27.65;4.25;;;;;;;5.40;100.00;101751.78;5223265;28;20100;-76
2023/01/10 10:30:10;;;;;;;19.83;3.75;;;;;;;5.46;100.00;101754.00;5220617;28;20048;-76
2023/01/10 10:32:41;;;;;;;37.28;6.82;;;;;;;5.52;100.00;101747.38;5211100;28;20471;-76
2023/01/10 10:35:24;;;;;;;23.42;5.38;;;;;;;5.60;100.00;101738.84;5211507;28;20040;-77
2023/01/10 10:38:02;;;;;;;26.92;5.70;;;;;;;5.70;100.00;101729.22;5205749;28;20021;-76
2023/01/10 10:40:38;;;;;;;28.13;4.03;;;;;;;5.79;100.00;101741.84;5224687;28;20028;-77
2023/01/10 10:43:36;;;;;;;26.70;4.15;;;;;;;5.80;100.00;101732.91;5223337;28;20396;-77
2023/01/10 10:46:11;;;;;;;31.58;4.07;;;;;;;5.95;100.00;101729.13;5208986;28;20476;-77
2023/01/10 10:48:56;;;;;;;25.27;4.18;;;;;;;5.94;100.00;101730.09;5222756;28;20828;-77
2023/01/10 10:51:50;;;;;;;23.65;3.70;;;;;;;6.00;100.00;101719.94;5222431;28;20036;-77
2023/01/10 10:54:21;;;;;;;26.45;3.75;;;;;;;5.96;100.00;101714.84;5223265;28;20123;-77
2023/01/10 10:56:54;;;;;;;26.52;4.18;;;;;;;6.02;100.00;101721.50;5222895;28;20108;-77
2023/01/10 10:59:25;;;;;;;23.27;4.15;;;;;;;6.05;100.00;101707.13;5201056;28;20036;-77
2023/01/10 11:01:55;;;;;;;21.02;4.38;;;;;;;6.07;100.00;101694.53;5215265;28;20021;-77
2023/01/10 11:04:27;;;;;;;23.60;3.75;;;;;;;6.08;100.00;101690.94;5201279;28;20033;-76
2023/01/10 11:06:57;;;;;;;25.77;3.63;;;;;;;6.09;100.00;101677.47;5202379;28;20025;-77
2023/01/10 11:12:09;;;;;;;20.77;4.15;;;;;;;6.17;100.00;101692.88;5202186;28;20025;-77
2023/01/10 11:14:41;;;;;;;;;;;;;;;6.21;100.00;101689.84;5206787;28;20028;-77
2023/01/10 11:17:30;;;;;;;34.58;5.22;;;;;;;6.26;100.00;101686.84;5223062;28;20415;-77
2023/01/10 11:20:04;;;;;;;21.85;3.55;;;;;;;6.20;100.00;101687.31;5221227;28;20485;-76
2023/01/10 11:22:45;;;;;;;30.00;5.38;;;;;;;6.24;100.00;101688.78;5223033;28;20361;-77
2023/01/10 11:25:19;;;;;;;26.02;4.85;;;;;;;6.26;100.00;101681.50;5215840;28;20029;-77
2023/01/10 11:27:53;;;;;;;24.58;3.60;;;;;;;6.22;100.00;101683.59;5216019;28;20021;-76
2023/01/10 11:30:26;;;;;;;40.92;5.57;;;;;;;6.22;100.00;101675.59;5221546;28;20393;-77
2023/01/10 11:33:03;;;;;;;30.40;4.07;;;;;;;6.27;100.00;101677.03;5205602;28;20425;-77
2023/01/10 11:35:37;;;;;;;25.42;3.58;;;;;;;6.23;100.00;101671.94;5214912;28;20025;-76
2023/01/10 11:38:16;;;;;;;22.02;4.38;;;;;;;6.27;100.00;101671.69;5223389;28;20076;-77
2023/01/10 11:41:16;;;;;;;21.35;3.83;;;;;;;6.29;100.00;101678.63;5224277;28;20033;-76
2023/01/10 11:43:46;;;;;;;20.85;3.60;;;;;;;6.34;100.00;101683.59;5224721;28;20524;-77
2023/01/10 11:46:24;;;;;;;20.08;4.20;;;;;;;6.35;100.00;101672.81;5225801;28;20099;-75
2023/01/10 11:49:09;;;;;;;23.98;4.05;;;;;;;6.36;100.00;101660.31;5227075;28;20017;-76
2023/01/10 11:51:46;;;;;;;33.92;5.13;;;;;;;6.42;100.00;101660.69;5206218;28;20044;-77
2023/01/10 11:54:24;;;;;;;27.23;4.25;;;;;;;6.45;100.00;101656.94;5206651;28;20021;-76
2023/01/10 11:57:13;;;;;;;31.63;4.88;;;;;;;6.49;100.00;101655.75;5206600;28;20112;-77
2023/01/10 11:59:58;;;;;;;29.02;4.88;;;;;;;6.53;100.00;101659.03;5206773;28;20246;-76
2023/01/10 12:02:38;;;;;;;26.00;4.13;;;;;;;6.50;100.00;101644.09;5206309;28;20029;-76
2023/01/10 12:05:16;;;;;;;24.45;4.30;;;;;;;6.53;100.00;101640.38;5206562;28;20026;-77